createdAt,value
2022-11-21T00:00:36.797Z,21.53
2022-11-21T00:05:42.747Z,21.33
2022-11-21T00:10:45.851Z,20.53
2022-11-21T00:15:48.707Z,21.53
2022-11-21T00:20:51.557Z,18.43
2022-11-21T00:25:54.495Z,18.80
2022-11-21T00:30:57.540Z,17.07
2022-11-21T00:36:06.642Z,17.60
2022-11-21T00:41:09.487Z,16.60
2022-11-21T00:46:12.516Z,19.57
2022-11-21T00:51:15.510Z,19.17
2022-11-21T00:56:18.664Z,17.57
2022-11-21T01:01:21.609Z,16.90
2022-11-21T01:06:24.393Z,19.37
2022-11-21T01:11:27.300Z,18.03
2022-11-21T01:16:30.300Z,19.83
2022-11-21T01:21:33.347Z,19.27
2022-11-21T01:26:38.414Z,17.73
2022-11-21T01:31:41.252Z,19.40
2022-11-21T01:36:44.352Z,18.60
2022-11-21T01:41:47.302Z,18.93
2022-11-21T01:46:51.685Z,19.37
2022-11-21T01:51:58.129Z,21.17
2022-11-21T01:57:16.860Z,19.23
2022-11-21T02:02:21.967Z,18.63
2022-11-21T02:07:25.698Z,18.07
2022-11-21T02:12:38.982Z,18.63
2022-11-21T02:17:42.092Z,19.63
2022-11-21T02:23:03.723Z,20.50
2022-11-21T02:28:08.589Z,19.57
2022-11-21T02:33:12.375Z,19.63
2022-11-21T02:38:20.378Z,19.70
2022-11-21T02:43:25.376Z,19.17
2022-11-21T02:48:28.685Z,19.60
2022-11-21T02:53:31.887Z,19.17
2022-11-21T02:58:34.865Z,19.37
2022-11-21T03:03:37.780Z,21.37
2022-11-21T03:08:40.588Z,22.00
2022-11-21T03:13:43.604Z,22.70
2022-11-21T03:18:46.783Z,22.93
2022-11-21T03:23:49.861Z,22.53
2022-11-21T03:28:52.982Z,22.57
2022-11-21T03:33:55.790Z,21.80
2022-11-21T03:38:58.850Z,22.83
2022-11-21T03:44:04.201Z,23.43
2022-11-21T03:49:07.642Z,23.70
2022-11-21T03:54:11.118Z,23.47
2022-11-21T03:59:13.913Z,23.50
2022-11-21T04:04:16.817Z,23.53
2022-11-21T04:09:19.743Z,21.03
2022-11-21T04:14:22.727Z,21.50
2022-11-21T04:19:25.835Z,22.20
2022-11-21T04:24:28.890Z,21.70
2022-11-21T04:29:31.841Z,19.67
2022-11-21T04:34:34.678Z,19.77
2022-11-21T04:39:37.758Z,20.30
2022-11-21T04:44:40.715Z,18.77
2022-11-21T04:49:43.712Z,19.07
2022-11-21T04:54:46.695Z,19.43
2022-11-21T04:59:49.491Z,19.07
2022-11-21T05:04:52.408Z,19.93
2022-11-21T05:09:55.372Z,20.80
2022-11-21T05:14:58.815Z,20.50
2022-11-21T05:20:02.145Z,20.30
2022-11-21T05:25:05.719Z,20.47
2022-11-21T05:30:09.229Z,21.33
2022-11-21T05:35:12.511Z,21.17
2022-11-21T05:40:15.730Z,23.30
2022-11-21T05:45:18.801Z,19.53
2022-11-21T05:50:21.812Z,19.37
2022-11-21T05:55:27.939Z,17.13
2022-11-21T06:00:30.756Z,19.30
2022-11-21T06:05:33.654Z,18.70
2022-11-21T06:10:36.932Z,20.87
2022-11-21T06:15:40.386Z,23.00
2022-11-21T06:20:43.335Z,20.10
2022-11-21T06:25:46.320Z,21.47
2022-11-21T06:30:52.127Z,21.57
2022-11-21T06:35:55.251Z,20.53
2022-11-21T06:40:58.210Z,21.33
2022-11-21T06:46:03.608Z,22.83
2022-11-21T06:51:09.406Z,22.03
2022-11-21T06:56:12.544Z,22.93
2022-11-21T07:01:15.705Z,21.67
2022-11-21T07:06:18.856Z,21.73
2022-11-21T07:11:25.687Z,22.53
2022-11-21T07:16:32.148Z,21.33
2022-11-21T07:21:34.988Z,22.67
2022-11-21T07:26:37.803Z,23.67
2022-11-21T07:31:40.756Z,25.10
2022-11-21T07:36:43.697Z,26.27
2022-11-21T07:41:46.853Z,24.20
2022-11-21T07:46:49.996Z,26.17
2022-11-21T07:51:53.008Z,26.10
2022-11-21T07:56:58.128Z,25.70
2022-11-21T08:02:01.238Z,22.97
2022-11-21T08:07:04.117Z,23.50
2022-11-21T08:12:06.933Z,29.90
2022-11-21T08:17:09.757Z,24.17
2022-11-21T08:22:12.461Z,23.23
2022-11-21T08:27:17.178Z,23.87
2022-11-21T08:32:20.103Z,24.90
2022-11-21T08:37:22.967Z,24.43
2022-11-21T08:42:26.370Z,23.90
2022-11-21T08:47:29.646Z,24.00
2022-11-21T08:52:32.510Z,28.27
2022-11-21T08:57:41.822Z,28.67
2022-11-21T09:02:45.042Z,26.60
2022-11-21T09:07:48.667Z,29.37
2022-11-21T09:12:51.631Z,28.70
2022-11-21T09:18:03.345Z,40.47
2022-11-21T09:23:07.208Z,38.27
2022-11-21T09:28:11.039Z,35.60
2022-11-21T09:33:17.100Z,42.20
2022-11-21T09:38:24.020Z,46.47
2022-11-21T09:43:30.187Z,40.33
2022-11-21T09:48:34.660Z,45.17
2022-11-21T09:53:42.930Z,43.17
2022-11-21T09:59:18.746Z,59.87
2022-11-21T10:04:21.730Z,47.30
2022-11-21T10:09:30.639Z,62.23
2022-11-21T10:14:42.830Z,50.20
2022-11-21T10:20:00.956Z,48.77
2022-11-21T10:25:13.368Z,46.67
2022-11-21T10:30:18.846Z,48.13
2022-11-21T10:35:39.969Z,47.50
2022-11-21T10:40:46.044Z,50.20
2022-11-21T10:45:49.745Z,45.30
2022-11-21T10:51:11.063Z,50.30
2022-11-21T10:56:25.574Z,47.77
2022-11-21T11:01:30.158Z,46.07
2022-11-21T11:06:33.516Z,49.13
2022-11-21T11:11:36.450Z,48.23
2022-11-21T11:16:45.098Z,53.00
2022-11-21T11:21:49.574Z,52.23
2022-11-21T11:26:59.151Z,86.73
2022-11-21T11:32:04.841Z,54.47
2022-11-21T11:37:20.833Z,51.70
2022-11-21T11:43:06.562Z,53.60
2022-11-21T11:48:12.909Z,51.87
2022-11-21T11:53:16.783Z,53.57
2022-11-21T11:58:26.324Z,52.33
2022-11-21T12:03:41.203Z,51.63
2022-11-21T12:08:53.367Z,53.67
2022-11-21T12:13:57.679Z,54.47
2022-11-21T12:19:11.442Z,55.03
2022-11-21T12:24:14.462Z,60.13
2022-11-21T12:29:30.299Z,51.00
2022-11-21T12:35:24.247Z,50.07
2022-11-21T12:40:33.002Z,51.47
2022-11-21T12:45:55.885Z,55.97
2022-11-21T12:51:36.910Z,52.27
2022-11-21T12:56:39.706Z,53.00
2022-11-21T13:02:08.146Z,51.50
2022-11-21T13:07:11.633Z,51.37
2022-11-21T13:12:41.114Z,50.60
2022-11-21T13:17:56.566Z,52.00
2022-11-21T13:23:06.783Z,53.90
2022-11-21T13:28:18.866Z,52.70
2022-11-21T13:33:40.314Z,51.77
2022-11-21T13:38:55.270Z,51.73
2022-11-21T13:44:38.100Z,51.50
2022-11-21T13:49:44.107Z,55.80
2022-11-21T13:55:23.710Z,56.57
2022-11-21T14:00:35.231Z,55.43
2022-11-21T14:05:57.158Z,55.63
2022-11-21T14:11:20.381Z,56.00
2022-11-21T14:16:41.527Z,54.93
2022-11-21T14:21:46.598Z,58.07
2022-11-21T14:26:51.566Z,55.93
2022-11-21T14:31:54.404Z,59.07
2022-11-21T14:37:03.448Z,57.33
2022-11-21T14:42:07.344Z,54.10
2022-11-21T14:47:24.645Z,56.23
2022-11-21T14:52:31.821Z,60.60
2022-11-21T14:57:39.458Z,60.10
2022-11-21T15:02:42.908Z,64.73
2022-11-21T15:07:47.930Z,56.93
2022-11-21T15:13:04.286Z,57.20
2022-11-21T15:18:33.558Z,57.63
2022-11-21T15:23:40.466Z,57.30
2022-11-21T15:28:54.981Z,56.80
2022-11-21T15:39:24.941Z,57.90
2022-11-21T15:44:28.499Z,58.57
2022-11-21T15:49:33.265Z,54.30
2022-11-21T15:54:36.993Z,58.30
2022-11-21T15:59:40.166Z,54.30
2022-11-21T16:04:43.060Z,56.97
2022-11-21T16:09:47.996Z,57.50
2022-11-21T16:14:51.097Z,54.20
2022-11-21T16:19:53.843Z,55.53
2022-11-21T16:24:57.042Z,58.43
2022-11-21T16:30:00.673Z,60.80
2022-11-21T16:35:04.256Z,58.77
2022-11-21T16:40:08.369Z,57.07
2022-11-21T16:45:11.681Z,57.33
2022-11-21T16:50:15.066Z,61.73
2022-11-21T16:55:18.345Z,54.17
2022-11-21T17:00:21.580Z,62.17
2022-11-21T17:05:25.033Z,57.53
2022-11-21T17:10:33.691Z,57.50
2022-11-21T17:15:38.525Z,61.17
2022-11-21T17:20:41.510Z,55.67
2022-11-21T17:25:45.141Z,57.57
2022-11-21T17:30:48.062Z,57.60
2022-11-21T17:35:51.540Z,54.57
2022-11-21T17:41:02.132Z,58.23
2022-11-21T17:46:10.009Z,56.20
2022-11-21T17:51:15.879Z,62.47
2022-11-21T17:56:20.887Z,59.43
2022-11-21T18:01:24.381Z,57.00
2022-11-21T18:06:32.998Z,58.97
2022-11-21T18:11:39.987Z,56.40
2022-11-21T18:31:59.188Z,57.87
2022-11-21T18:37:02.167Z,62.33
2022-11-21T18:42:05.274Z,56.17
2022-11-21T18:47:19.599Z,57.73
2022-11-21T18:52:24.169Z,59.00
2022-11-21T18:57:27.074Z,61.37
2022-11-21T19:02:30.223Z,64.23
2022-11-21T19:07:33.127Z,56.33
2022-11-21T19:12:39.723Z,56.33
2022-11-21T19:17:43.038Z,61.60
2022-11-21T19:22:46.031Z,58.23
2022-11-21T19:27:49.529Z,57.23
2022-11-21T19:32:52.611Z,55.97
2022-11-21T19:37:55.711Z,58.10
2022-11-21T19:42:59.022Z,61.47
2022-11-21T19:48:02.221Z,61.70
2022-11-21T19:53:05.338Z,64.60
2022-11-21T19:58:08.125Z,62.00
2022-11-21T20:03:11.226Z,76.70
2022-11-21T20:08:17.685Z,60.97
2022-11-21T20:13:21.792Z,66.80
2022-11-21T20:18:24.780Z,64.93
2022-11-21T20:23:27.830Z,68.00
2022-11-21T20:28:31.278Z,65.63
2022-11-21T20:33:38.437Z,62.77
2022-11-21T20:38:42.123Z,60.33
2022-11-21T20:44:32.429Z,55.17
2022-11-21T20:49:08.901Z,57.10
2022-11-21T20:54:12.410Z,59.80
2022-11-21T20:59:15.952Z,57.13
2022-11-21T21:04:19.191Z,57.80
2022-11-21T21:09:22.447Z,60.47
2022-11-21T21:14:25.322Z,57.50
2022-11-21T21:19:28.644Z,56.73
2022-11-21T21:24:32.136Z,59.20
2022-11-21T21:29:35.323Z,63.90
2022-11-21T21:34:38.250Z,63.50
2022-11-21T21:39:41.195Z,57.50
2022-11-21T21:44:44.322Z,55.30
2022-11-21T21:49:50.907Z,56.77
2022-11-21T21:54:53.711Z,57.03
2022-11-21T21:59:57.056Z,58.50
2022-11-21T22:05:00.039Z,57.13
2022-11-21T22:10:03.220Z,57.13
2022-11-21T22:15:06.650Z,59.27
2022-11-21T22:20:09.920Z,56.60
2022-11-21T22:25:12.821Z,56.00
2022-11-21T22:30:16.019Z,60.43
2022-11-21T22:35:18.930Z,55.93
2022-11-21T22:40:21.785Z,57.20
2022-11-21T22:45:25.135Z,58.37
2022-11-21T22:50:28.059Z,57.30
2022-11-21T22:55:30.941Z,57.93
2022-11-21T23:00:33.920Z,56.77
2022-11-21T23:05:37.113Z,57.70
2022-11-21T23:10:40.042Z,64.07
2022-11-21T23:15:42.875Z,61.77
2022-11-21T23:20:45.595Z,57.63
2022-11-21T23:25:48.633Z,57.27
2022-11-21T23:30:51.893Z,62.23
2022-11-21T23:35:54.800Z,63.20
2022-11-21T23:40:57.852Z,58.07
2022-11-21T23:46:00.780Z,55.80
2022-11-21T23:51:03.715Z,55.47
2022-11-21T23:56:06.803Z,53.80
